sensor_id;sensor_type;location;lat;lon;timestamp;pressure;altitude;pressure_sealevel;temperature;humidity
20160;BME280;50187;50.492;12.134;2022-11-15T00:00:30;97476.28;;;18.11;42.02
20160;BME280;50187;50.492;12.134;2022-11-15T00:03:35;97470.44;;;18.16;41.94
20160;BME280;50187;50.492;12.134;2022-11-15T00:06:39;97469.44;;;18.17;42.13
20160;BME280;50187;50.492;12.134;2022-11-15T00:09:43;97479.38;;;18.16;41.84
20160;BME280;50187;50.492;12.134;2022-11-15T00:12:49;97473.13;;;18.16;42.08
20160;BME280;50187;50.492;12.134;2022-11-15T00:15:56;97464.19;;;18.15;41.88
20160;BME280;50187;50.492;12.134;2022-11-15T00:19:01;97466.91;;;18.15;41.98
20160;BME280;50187;50.492;12.134;2022-11-15T00:22:05;97469.59;;;18.15;41.84
20160;BME280;50187;50.492;12.134;2022-11-15T00:25:09;97470.28;;;18.17;41.78
20160;BME280;50187;50.492;12.134;2022-11-15T00:28:13;97472.28;;;18.15;41.84
20160;BME280;50187;50.492;12.134;2022-11-15T00:31:17;97474.13;;;18.15;41.83
20160;BME280;50187;50.492;12.134;2022-11-15T00:34:22;97470.56;;;18.14;42.12
20160;BME280;50187;50.492;12.134;2022-11-15T00:37:25;97470.56;;;18.14;41.95
20160;BME280;50187;50.492;12.134;2022-11-15T00:40:29;97472.59;;;18.12;42.01
20160;BME280;50187;50.492;12.134;2022-11-15T00:43:34;97467.22;;;18.12;41.97
20160;BME280;50187;50.492;12.134;2022-11-15T00:46:39;97458.25;;;18.12;41.88
20160;BME280;50187;50.492;12.134;2022-11-15T00:49:43;97459.97;;;18.13;42.12
20160;BME280;50187;50.492;12.134;2022-11-15T00:52:47;97458.41;;;18.10;42.21
20160;BME280;50187;50.492;12.134;2022-11-15T00:55:51;97453.91;;;18.11;41.80
20160;BME280;50187;50.492;12.134;2022-11-15T00:58:55;97456.59;;;18.11;41.95
20160;BME280;50187;50.492;12.134;2022-11-15T01:01:59;97456.59;;;18.11;42.10
20160;BME280;50187;50.492;12.134;2022-11-15T01:05:04;97435.97;;;18.01;42.15
20160;BME280;50187;50.492;12.134;2022-11-15T01:08:13;97451.06;;;18.12;42.01
20160;BME280;50187;50.492;12.134;2022-11-15T01:11:17;97458.25;;;18.12;41.98
20160;BME280;50187;50.492;12.134;2022-11-15T01:14:21;97457.44;;;18.11;41.93
20160;BME280;50187;50.492;12.134;2022-11-15T01:17:28;97456.75;;;18.09;41.95
20160;BME280;50187;50.492;12.134;2022-11-15T01:20:32;97448.53;;;18.11;42.04
20160;BME280;50187;50.492;12.134;2022-11-15T01:23:37;97447.13;;;18.07;42.17
20160;BME280;50187;50.492;12.134;2022-11-15T01:26:41;97455.06;;;18.08;42.16
20160;BME280;50187;50.492;12.134;2022-11-15T01:29:45;97441.75;;;18.07;42.04
20160;BME280;50187;50.492;12.134;2022-11-15T01:32:49;97444.28;;;18.08;42.17
20160;BME280;50187;50.492;12.134;2022-11-15T01:35:53;97438.91;;;18.08;42.00
20160;BME280;50187;50.492;12.134;2022-11-15T01:38:59;97440.72;;;18.08;42.04
20160;BME280;50187;50.492;12.134;2022-11-15T01:42:03;97442.75;;;18.06;42.26
20160;BME280;50187;50.492;12.134;2022-11-15T01:45:13;97491.66;;;18.01;42.18
20160;BME280;50187;50.492;12.134;2022-11-15T01:48:18;97450.81;;;18.06;42.24
20160;BME280;50187;50.492;12.134;2022-11-15T01:51:24;97450.81;;;18.06;42.18
20160;BME280;50187;50.492;12.134;2022-11-15T01:54:30;97434.97;;;18.02;42.14
20160;BME280;50187;50.492;12.134;2022-11-15T01:57:34;97434.97;;;18.02;42.10
20160;BME280;50187;50.492;12.134;2022-11-15T02:00:39;97429.44;;;18.04;42.08
20160;BME280;50187;50.492;12.134;2022-11-15T02:03:52;97436.66;;;18.04;42.15
20160;BME280;50187;50.492;12.134;2022-11-15T02:07:02;97434.81;;;18.04;42.11
20160;BME280;50187;50.492;12.134;2022-11-15T02:10:16;97430.44;;;18.03;41.93
20160;BME280;50187;50.492;12.134;2022-11-15T02:13:21;97423.34;;;18.02;42.24
20160;BME280;50187;50.492;12.134;2022-11-15T02:16:33;97427.06;;;18.01;42.18
20160;BME280;50187;50.492;12.134;2022-11-15T02:26:45;97418.97;;;18.01;42.09
20160;BME280;50187;50.492;12.134;2022-11-15T02:33:43;97416.44;;;17.99;42.15
20160;BME280;50187;50.492;12.134;2022-11-15T02:40:17;97398.44;;;18.00;42.26
20160;BME280;50187;50.492;12.134;2022-11-15T02:43:48;97389.69;;;17.98;42.30
20160;BME280;50187;50.492;12.134;2022-11-15T02:47:03;97377.06;;;17.98;42.39
20160;BME280;50187;50.492;12.134;2022-11-15T02:50:20;97366.78;;;17.94;42.21
20160;BME280;50187;50.492;12.134;2022-11-15T02:53:25;97358.38;;;17.97;42.13
20160;BME280;50187;50.492;12.134;2022-11-15T02:56:30;97369.00;;;17.98;42.03
20160;BME280;50187;50.492;12.134;2022-11-15T03:06:20;97367.28;;;17.97;41.99
20160;BME280;50187;50.492;12.134;2022-11-15T03:12:51;97382.59;;;17.97;42.06
20160;BME280;50187;50.492;12.134;2022-11-15T03:16:03;97377.53;;;17.94;42.35
20160;BME280;50187;50.492;12.134;2022-11-15T03:23:09;97375.84;;;17.93;42.42
20160;BME280;50187;50.492;12.134;2022-11-15T03:26:16;97367.75;;;17.93;42.39
20160;BME280;50187;50.492;12.134;2022-11-15T03:29:27;97361.53;;;17.92;42.26
20160;BME280;50187;50.492;12.134;2022-11-15T03:32:44;97354.75;;;17.88;42.36
20160;BME280;50187;50.492;12.134;2022-11-15T03:35:51;97350.91;;;17.91;42.37
20160;BME280;50187;50.492;12.134;2022-11-15T03:39:00;97344.09;;;17.86;42.30
20160;BME280;50187;50.492;12.134;2022-11-15T03:42:20;97339.44;;;17.89;42.32
20160;BME280;50187;50.492;12.134;2022-11-15T03:45:31;97361.13;;;17.87;42.32
20160;BME280;50187;50.492;12.134;2022-11-15T03:48:52;97344.81;;;17.89;42.15
20160;BME280;50187;50.492;12.134;2022-11-15T03:51:58;97336.03;;;17.86;42.22
20160;BME280;50187;50.492;12.134;2022-11-15T03:55:05;97335.03;;;17.88;42.23
20160;BME280;50187;50.492;12.134;2022-11-15T03:58:09;97326.69;;;17.91;42.03
20160;BME280;50187;50.492;12.134;2022-11-15T04:01:13;97327.28;;;17.84;42.31
20160;BME280;50187;50.492;12.134;2022-11-15T04:04:18;97323.28;;;17.89;42.08
20160;BME280;50187;50.492;12.134;2022-11-15T04:07:22;97335.03;;;17.88;42.05
20160;BME280;50187;50.492;12.134;2022-11-15T04:10:26;97329.38;;;17.91;42.36
20160;BME280;50187;50.492;12.134;2022-11-15T04:13:29;97341.97;;;17.90;42.18
20160;BME280;50187;50.492;12.134;2022-11-15T04:16:34;97330.25;;;17.91;42.32
20160;BME280;50187;50.492;12.134;2022-11-15T04:19:45;97340.16;;;17.91;42.10
20160;BME280;50187;50.492;12.134;2022-11-15T04:26:34;97323.88;;;17.92;42.33
20160;BME280;50187;50.492;12.134;2022-11-15T04:29:39;97336.47;;;17.92;42.33
20160;BME280;50187;50.492;12.134;2022-11-15T04:32:43;97330.94;;;17.93;42.16
20160;BME280;50187;50.492;12.134;2022-11-15T04:35:46;97322.16;;;17.91;42.17
20160;BME280;50187;50.492;12.134;2022-11-15T04:39:10;97321.19;;;17.92;42.22
20160;BME280;50187;50.492;12.134;2022-11-15T04:42:14;97323.00;;;17.92;42.08
20160;BME280;50187;50.492;12.134;2022-11-15T04:45:18;97319.59;;;17.90;42.14
20160;BME280;50187;50.492;12.134;2022-11-15T04:48:23;97315.38;;;17.87;42.40
20160;BME280;50187;50.492;12.134;2022-11-15T04:51:26;97309.13;;;17.86;42.04
20160;BME280;50187;50.492;12.134;2022-11-15T04:54:30;97313.84;;;17.84;42.33
20160;BME280;50187;50.492;12.134;2022-11-15T04:57:35;97313.84;;;17.84;42.13
20160;BME280;50187;50.492;12.134;2022-11-15T05:00:38;97308.94;;;17.80;42.20
20160;BME280;50187;50.492;12.134;2022-11-15T05:03:44;97310.47;;;17.82;42.07
20160;BME280;50187;50.492;12.134;2022-11-15T05:07:07;97316.69;;;17.83;42.20
20160;BME280;50187;50.492;12.134;2022-11-15T05:10:11;97316.13;;;17.79;42.35
20160;BME280;50187;50.492;12.134;2022-11-15T05:13:15;97329.41;;;17.81;42.16
20160;BME280;50187;50.492;12.134;2022-11-15T05:16:19;97321.50;;;17.79;42.14
20160;BME280;50187;50.492;12.134;2022-11-15T05:19:23;97314.16;;;17.81;42.34
20160;BME280;50187;50.492;12.134;2022-11-15T05:22:27;97310.47;;;17.82;42.17
20160;BME280;50187;50.492;12.134;2022-11-15T05:25:31;97305.22;;;17.81;42.19
20160;BME280;50187;50.492;12.134;2022-11-15T05:28:36;97312.13;;;17.83;42.54
20160;BME280;50187;50.492;12.134;2022-11-15T05:31:40;97306.75;;;17.83;42.41
20160;BME280;50187;50.492;12.134;2022-11-15T05:34:45;97310.31;;;17.84;42.36
20160;BME280;50187;50.492;12.134;2022-11-15T05:37:50;97311.16;;;17.84;42.22
20160;BME280;50187;50.492;12.134;2022-11-15T05:40:54;97310.97;;;17.86;42.04
20160;BME280;50187;50.492;12.134;2022-11-15T05:43:59;97304.94;;;17.84;42.42
20160;BME280;50187;50.492;12.134;2022-11-15T05:47:06;97299.22;;;17.87;42.13
20160;BME280;50187;50.492;12.134;2022-11-15T05:50:14;97301.06;;;17.86;42.23
20160;BME280;50187;50.492;12.134;2022-11-15T05:53:21;97298.69;;;17.83;42.26
20160;BME280;50187;50.492;12.134;2022-11-15T05:56:26;97304.78;;;17.85;42.26
20160;BME280;50187;50.492;12.134;2022-11-15T05:59:31;97297.53;;;17.86;42.36
20160;BME280;50187;50.492;12.134;2022-11-15T06:02:35;97290.09;;;17.80;42.22
20160;BME280;50187;50.492;12.134;2022-11-15T06:05:39;97297.84;;;17.83;42.26
20160;BME280;50187;50.492;12.134;2022-11-15T06:08:44;97306.75;;;17.83;42.22
20160;BME280;50187;50.492;12.134;2022-11-15T06:11:47;97304.22;;;17.82;42.43
20160;BME280;50187;50.492;12.134;2022-11-15T06:14:52;97301.69;;;17.80;42.23
20160;BME280;50187;50.492;12.134;2022-11-15T06:17:56;97309.06;;;17.78;42.28
20160;BME280;50187;50.492;12.134;2022-11-15T06:21:04;97311.78;;;17.78;42.18
20160;BME280;50187;50.492;12.134;2022-11-15T06:24:08;97314.75;;;17.75;42.29
20160;BME280;50187;50.492;12.134;2022-11-15T06:27:12;97305.69;;;17.76;42.41
20160;BME280;50187;50.492;12.134;2022-11-15T06:30:16;97314.63;;;17.77;42.48
20160;BME280;50187;50.492;12.134;2022-11-15T06:33:20;97303.97;;;17.75;42.50
20160;BME280;50187;50.492;12.134;2022-11-15T06:36:25;97312.75;;;17.77;42.48
20160;BME280;50187;50.492;12.134;2022-11-15T06:39:29;97305.22;;;17.81;42.64
20160;BME280;50187;50.492;12.134;2022-11-15T06:42:33;97307.06;;;17.80;42.36
20160;BME280;50187;50.492;12.134;2022-11-15T06:45:37;97310.53;;;17.91;42.33
20160;BME280;50187;50.492;12.134;2022-11-15T06:48:41;97320.31;;;17.92;42.18
20160;BME280;50187;50.492;12.134;2022-11-15T06:51:45;97308.28;;;17.86;42.19
20160;BME280;50187;50.492;12.134;2022-11-15T06:54:50;97317.44;;;17.75;41.02
20160;BME280;50187;50.492;12.134;2022-11-15T06:57:54;97317.22;;;17.68;40.42
20160;BME280;50187;50.492;12.134;2022-11-15T07:01:09;97323.34;;;17.61;39.97
20160;BME280;50187;50.492;12.134;2022-11-15T07:04:14;97319.28;;;17.57;39.49
20160;BME280;50187;50.492;12.134;2022-11-15T07:07:18;97313.31;;;17.63;38.61
20160;BME280;50187;50.492;12.134;2022-11-15T07:10:23;97305.38;;;17.79;38.44
20160;BME280;50187;50.492;12.134;2022-11-15T07:13:30;97311.41;;;18.09;38.82
20160;BME280;50187;50.492;12.134;2022-11-15T07:16:38;97313.50;;;18.42;38.60
20160;BME280;50187;50.492;12.134;2022-11-15T07:19:42;97310.47;;;18.71;38.25
20160;BME280;50187;50.492;12.134;2022-11-15T07:22:46;97310.72;;;18.86;38.42
20160;BME280;50187;50.492;12.134;2022-11-15T07:25:50;97306.69;;;19.25;38.23
20160;BME280;50187;50.492;12.134;2022-11-15T07:28:54;97313.50;;;19.45;38.06
20160;BME280;50187;50.492;12.134;2022-11-15T07:31:58;97300.56;;;19.57;38.01
20160;BME280;50187;50.492;12.134;2022-11-15T07:35:03;97298.41;;;19.77;37.80
20160;BME280;50187;50.492;12.134;2022-11-15T07:38:07;97305.19;;;19.98;37.71
20160;BME280;50187;50.492;12.134;2022-11-15T07:41:11;97305.03;;;20.16;37.56
20160;BME280;50187;50.492;12.134;2022-11-15T07:44:15;97303.19;;;20.24;37.73
20160;BME280;50187;50.492;12.134;2022-11-15T07:47:19;97311.28;;;20.41;37.62
20160;BME280;50187;50.492;12.134;2022-11-15T07:50:24;97304.81;;;20.58;37.77
20160;BME280;50187;50.492;12.134;2022-11-15T07:53:29;97298.75;;;20.73;37.38
20160;BME280;50187;50.492;12.134;2022-11-15T07:56:33;97309.06;;;20.78;37.51
20160;BME280;50187;50.492;12.134;2022-11-15T07:59:37;97300.41;;;20.82;37.65
20160;BME280;50187;50.492;12.134;2022-11-15T08:02:41;97302.28;;;20.82;37.80
20160;BME280;50187;50.492;12.134;2022-11-15T08:08:53;97300.38;;;20.90;37.71
20160;BME280;50187;50.492;12.134;2022-11-15T08:11:57;97314.25;;;20.96;37.93
20160;BME280;50187;50.492;12.134;2022-11-15T08:15:01;97306.78;;;20.98;37.95
20160;BME280;50187;50.492;12.134;2022-11-15T08:18:12;97297.66;;;20.99;38.12
20160;BME280;50187;50.492;12.134;2022-11-15T08:21:19;97295.13;;;20.97;37.87
20160;BME280;50187;50.492;12.134;2022-11-15T08:24:23;97298.69;;;20.89;38.28
20160;BME280;50187;50.492;12.134;2022-11-15T08:27:27;97295.88;;;20.83;38.04
20160;BME280;50187;50.492;12.134;2022-11-15T08:30:37;97289.59;;;20.82;38.22
20160;BME280;50187;50.492;12.134;2022-11-15T08:33:42;97292.81;;;20.86;38.23
20160;BME280;50187;50.492;12.134;2022-11-15T08:36:47;97299.03;;;20.95;38.16
20160;BME280;50187;50.492;12.134;2022-11-15T08:39:51;97285.69;;;20.93;38.33
20160;BME280;50187;50.492;12.134;2022-11-15T08:42:55;97278.75;;;20.90;38.65
20160;BME280;50187;50.492;12.134;2022-11-15T08:45:59;97278.09;;;20.88;38.58
20160;BME280;50187;50.492;12.134;2022-11-15T08:49:02;97278.09;;;20.88;38.51
20160;BME280;50187;50.492;12.134;2022-11-15T08:52:07;97266.13;;;20.83;38.85
20160;BME280;50187;50.492;12.134;2022-11-15T08:55:11;97266.28;;;20.81;39.08
20160;BME280;50187;50.492;12.134;2022-11-15T08:58:16;97263.06;;;20.94;38.89
20160;BME280;50187;50.492;12.134;2022-11-15T09:01:21;97270.97;;;20.96;38.92
20160;BME280;50187;50.492;12.134;2022-11-15T09:04:25;97260.63;;;20.99;38.80
20160;BME280;50187;50.492;12.134;2022-11-15T09:07:29;97262.16;;;21.02;38.59
20160;BME280;50187;50.492;12.134;2022-11-15T09:10:34;97254.03;;;21.02;38.73
20160;BME280;50187;50.492;12.134;2022-11-15T09:13:39;97253.88;;;21.03;38.88
20160;BME280;50187;50.492;12.134;2022-11-15T09:16:43;97245.94;;;21.02;38.73
20160;BME280;50187;50.492;12.134;2022-11-15T09:19:47;97249.78;;;21.07;38.99
20160;BME280;50187;50.492;12.134;2022-11-15T09:22:51;97245.06;;;21.09;39.07
20160;BME280;50187;50.492;12.134;2022-11-15T09:26:02;97242.84;;;21.13;39.05
20160;BME280;50187;50.492;12.134;2022-11-15T09:29:07;97243.81;;;21.20;39.01
20160;BME280;50187;50.492;12.134;2022-11-15T09:32:11;97237.53;;;21.28;38.63
20160;BME280;50187;50.492;12.134;2022-11-15T09:35:16;97239.69;;;21.33;38.73
20160;BME280;50187;50.492;12.134;2022-11-15T09:38:20;97239.16;;;21.37;38.81
20160;BME280;50187;50.492;12.134;2022-11-15T09:41:52;97233.38;;;21.40;38.49
20160;BME280;50187;50.492;12.134;2022-11-15T09:45:22;97232.19;;;21.43;38.55
20160;BME280;50187;50.492;12.134;2022-11-15T09:51:43;97220.84;;;21.48;38.80
20160;BME280;50187;50.492;12.134;2022-11-15T09:54:38;97221.28;;;21.59;38.62
20160;BME280;50187;50.492;12.134;2022-11-15T09:57:42;97215.13;;;21.66;38.43
20160;BME280;50187;50.492;12.134;2022-11-15T10:00:38;97199.84;;;21.73;38.24
20160;BME280;50187;50.492;12.134;2022-11-15T10:03:38;97206.25;;;21.80;38.23
20160;BME280;50187;50.492;12.134;2022-11-15T10:06:26;97201.28;;;21.84;38.08
20160;BME280;50187;50.492;12.134;2022-11-15T10:09:20;97203.34;;;21.82;38.09
20160;BME280;50187;50.492;12.134;2022-11-15T10:12:09;97203.63;;;21.87;38.15
20160;BME280;50187;50.492;12.134;2022-11-15T10:15:06;97201.78;;;21.87;38.23
20160;BME280;50187;50.492;12.134;2022-11-15T10:18:09;97191.91;;;21.94;38.21
20160;BME280;50187;50.492;12.134;2022-11-15T10:21:11;97194.53;;;22.03;37.96
20160;BME280;50187;50.492;12.134;2022-11-15T10:24:00;97180.63;;;22.06;38.20
20160;BME280;50187;50.492;12.134;2022-11-15T10:26:47;97190.25;;;22.08;38.12
20160;BME280;50187;50.492;12.134;2022-11-15T10:29:32;97182.75;;;22.10;38.05
20160;BME280;50187;50.492;12.134;2022-11-15T10:32:19;97174.25;;;22.13;37.93
20160;BME280;50187;50.492;12.134;2022-11-15T10:35:26;97176.34;;;22.11;38.30
20160;BME280;50187;50.492;12.134;2022-11-15T10:38:12;97173.06;;;22.16;38.38
20160;BME280;50187;50.492;12.134;2022-11-15T10:41:07;97162.72;;;22.20;38.35
20160;BME280;50187;50.492;12.134;2022-11-15T10:47:06;97153.25;;;22.30;38.34
20160;BME280;50187;50.492;12.134;2022-11-15T10:50:01;97161.06;;;22.34;38.25
20160;BME280;50187;50.492;12.134;2022-11-15T10:52:46;97153.06;;;22.32;38.35
20160;BME280;50187;50.492;12.134;2022-11-15T10:55:33;97153.25;;;22.30;38.01
20160;BME280;50187;50.492;12.134;2022-11-15T10:58:34;97157.31;;;22.35;38.30
20160;BME280;50187;50.492;12.134;2022-11-15T11:01:25;97147.53;;;22.34;38.19
20160;BME280;50187;50.492;12.134;2022-11-15T11:04:12;97147.97;;;22.37;38.13
20160;BME280;50187;50.492;12.134;2022-11-15T11:06:59;97141.72;;;22.37;38.42
20160;BME280;50187;50.492;12.134;2022-11-15T11:09:44;97140.66;;;22.38;38.23
20160;BME280;50187;50.492;12.134;2022-11-15T11:12:32;97134.03;;;22.40;38.24
20160;BME280;50187;50.492;12.134;2022-11-15T11:15:17;97133.66;;;22.43;38.31
20160;BME280;50187;50.492;12.134;2022-11-15T11:18:07;97129.53;;;22.47;37.99
20160;BME280;50187;50.492;12.134;2022-11-15T11:21:01;97127.88;;;22.46;38.14
20160;BME280;50187;50.492;12.134;2022-11-15T11:24:02;97123.09;;;22.49;38.37
20160;BME280;50187;50.492;12.134;2022-11-15T11:27:07;97117.69;;;22.49;38.09
20160;BME280;50187;50.492;12.134;2022-11-15T11:33:05;97102.19;;;22.42;38.50
20160;BME280;50187;50.492;12.134;2022-11-15T11:38:56;97101.06;;;22.37;38.45
20160;BME280;50187;50.492;12.134;2022-11-15T11:48:02;97086.56;;;22.29;38.51
20160;BME280;50187;50.492;12.134;2022-11-15T11:50:53;97077.59;;;22.29;38.40
20160;BME280;50187;50.492;12.134;2022-11-15T11:53:50;97073.22;;;22.28;38.56
20160;BME280;50187;50.492;12.134;2022-11-15T11:56:39;97069.56;;;22.21;38.97
20160;BME280;50187;50.492;12.134;2022-11-15T12:02:37;97070.31;;;22.15;38.80
20160;BME280;50187;50.492;12.134;2022-11-15T12:05:51;97060.13;;;22.17;38.99
20160;BME280;50187;50.492;12.134;2022-11-15T12:09:04;97060.59;;;22.20;38.99
20160;BME280;50187;50.492;12.134;2022-11-15T12:14:49;97047.16;;;22.27;38.82
20160;BME280;50187;50.492;12.134;2022-11-15T12:17:37;97048.16;;;22.26;38.76
20160;BME280;50187;50.492;12.134;2022-11-15T12:20:27;97043.56;;;22.26;38.93
20160;BME280;50187;50.492;12.134;2022-11-15T12:23:15;97043.97;;;22.23;38.86
20160;BME280;50187;50.492;12.134;2022-11-15T12:26:10;97043.03;;;22.16;39.13
20160;BME280;50187;50.492;12.134;2022-11-15T12:29:03;97050.03;;;22.10;39.20
20160;BME280;50187;50.492;12.134;2022-11-15T12:31:54;97040.06;;;21.96;39.35
20160;BME280;50187;50.492;12.134;2022-11-15T12:34:48;97043.59;;;21.96;39.72
20160;BME280;50187;50.492;12.134;2022-11-15T12:40:34;97034.09;;;21.86;39.80
20160;BME280;50187;50.492;12.134;2022-11-15T12:43:38;97037.16;;;21.83;39.78
20160;BME280;50187;50.492;12.134;2022-11-15T12:52:20;97024.66;;;21.67;40.09
20160;BME280;50187;50.492;12.134;2022-11-15T12:55:30;97024.34;;;21.61;40.36
20160;BME280;50187;50.492;12.134;2022-11-15T13:07:05;97021.50;;;21.40;40.75
20160;BME280;50187;50.492;12.134;2022-11-15T13:09:54;97017.97;;;21.39;40.47
20160;BME280;50187;50.492;12.134;2022-11-15T13:18:39;97005.94;;;21.42;40.00
20160;BME280;50187;50.492;12.134;2022-11-15T13:21:24;97011.50;;;21.40;39.97
20160;BME280;50187;50.492;12.134;2022-11-15T13:24:28;97004.72;;;21.44;40.36
20160;BME280;50187;50.492;12.134;2022-11-15T13:27:19;97003.69;;;21.45;40.66
20160;BME280;50187;50.492;12.134;2022-11-15T13:30:04;96998.66;;;21.42;41.08
20160;BME280;50187;50.492;12.134;2022-11-15T13:32:51;96993.63;;;21.39;41.38
20160;BME280;50187;50.492;12.134;2022-11-15T13:35:39;96995.13;;;21.42;41.23
20160;BME280;50187;50.492;12.134;2022-11-15T13:38:27;96996.41;;;21.46;41.26
20160;BME280;50187;50.492;12.134;2022-11-15T13:44:02;96991.94;;;21.38;40.18
20160;BME280;50187;50.492;12.134;2022-11-15T13:47:33;96986.16;;;21.26;39.67
20160;BME280;50187;50.492;12.134;2022-11-15T13:50:13;96987.72;;;21.21;39.09
20160;BME280;50187;50.492;12.134;2022-11-15T13:53:00;96981.53;;;21.12;39.11
20160;BME280;50187;50.492;12.134;2022-11-15T13:55:47;96981.44;;;21.05;38.83
20160;BME280;50187;50.492;12.134;2022-11-15T13:58:32;96989.44;;;20.99;38.53
20160;BME280;50187;50.492;12.134;2022-11-15T14:01:20;96985.28;;;20.88;38.38
20160;BME280;50187;50.492;12.134;2022-11-15T14:04:11;96971.56;;;20.74;38.66
20160;BME280;50187;50.492;12.134;2022-11-15T14:06:59;96976.28;;;20.72;38.67
20160;BME280;50187;50.492;12.134;2022-11-15T14:09:46;96975.09;;;20.67;38.67
20160;BME280;50187;50.492;12.134;2022-11-15T14:12:34;96965.69;;;20.63;38.47
20160;BME280;50187;50.492;12.134;2022-11-15T14:18:44;96961.06;;;20.48;39.56
20160;BME280;50187;50.492;12.134;2022-11-15T14:21:29;96957.03;;;20.44;39.50
20160;BME280;50187;50.492;12.134;2022-11-15T14:27:22;96958.22;;;20.41;39.46
20160;BME280;50187;50.492;12.134;2022-11-15T14:30:17;96954.03;;;20.39;39.15
20160;BME280;50187;50.492;12.134;2022-11-15T14:33:18;96952.72;;;20.35;39.19
20160;BME280;50187;50.492;12.134;2022-11-15T14:36:14;96946.47;;;20.34;39.26
20160;BME280;50187;50.492;12.134;2022-11-15T14:38:59;96941.78;;;20.28;38.94
20160;BME280;50187;50.492;12.134;2022-11-15T14:41:46;96931.69;;;20.22;38.96
20160;BME280;50187;50.492;12.134;2022-11-15T14:44:31;96930.53;;;20.16;39.06
20160;BME280;50187;50.492;12.134;2022-11-15T14:47:16;96922.81;;;20.13;38.89
20160;BME280;50187;50.492;12.134;2022-11-15T14:50:02;96924.50;;;20.14;38.97
20160;BME280;50187;50.492;12.134;2022-11-15T14:52:48;96918.25;;;20.14;39.11
20160;BME280;50187;50.492;12.134;2022-11-15T14:55:35;96906.59;;;20.13;39.69
20160;BME280;50187;50.492;12.134;2022-11-15T14:58:21;96897.00;;;20.11;39.48
20160;BME280;50187;50.492;12.134;2022-11-15T15:01:24;96897.53;;;20.06;39.34
20160;BME280;50187;50.492;12.134;2022-11-15T15:04:10;96880.19;;;20.00;38.98
20160;BME280;50187;50.492;12.134;2022-11-15T15:06:56;96882.53;;;20.03;39.47
20160;BME280;50187;50.492;12.134;2022-11-15T15:09:42;96878.50;;;19.99;39.10
20160;BME280;50187;50.492;12.134;2022-11-15T15:12:27;96872.31;;;19.90;39.54
20160;BME280;50187;50.492;12.134;2022-11-15T15:15:19;96871.72;;;19.80;39.45
20160;BME280;50187;50.492;12.134;2022-11-15T15:18:06;96869.03;;;19.80;39.84
20160;BME280;50187;50.492;12.134;2022-11-15T15:20:58;96880.47;;;19.82;39.84
20160;BME280;50187;50.492;12.134;2022-11-15T15:23:52;96879.44;;;19.83;39.76
20160;BME280;50187;50.492;12.134;2022-11-15T15:26:39;96872.38;;;19.82;39.50
20160;BME280;50187;50.492;12.134;2022-11-15T15:29:24;96875.75;;;19.84;39.87
20160;BME280;50187;50.492;12.134;2022-11-15T15:32:10;96873.56;;;19.80;40.42
20160;BME280;50187;50.492;12.134;2022-11-15T15:34:57;96876.09;;;19.81;40.05
20160;BME280;50187;50.492;12.134;2022-11-15T15:37:44;96874.41;;;19.80;39.58
20160;BME280;50187;50.492;12.134;2022-11-15T15:40:31;96877.94;;;19.81;39.77
20160;BME280;50187;50.492;12.134;2022-11-15T15:43:17;96877.75;;;19.82;39.53
20160;BME280;50187;50.492;12.134;2022-11-15T15:46:02;96877.13;;;19.80;39.54
20160;BME280;50187;50.492;12.134;2022-11-15T15:48:47;96881.50;;;19.81;39.37
20160;BME280;50187;50.492;12.134;2022-11-15T15:51:32;96867.53;;;19.69;39.38
20160;BME280;50187;50.492;12.134;2022-11-15T15:54:18;96871.72;;;19.72;39.24
20160;BME280;50187;50.492;12.134;2022-11-15T15:57:03;96888.09;;;19.70;39.99
20160;BME280;50187;50.492;12.134;2022-11-15T15:59:49;96881.88;;;19.70;40.27
20160;BME280;50187;50.492;12.134;2022-11-15T16:02:34;96886.53;;;19.76;40.74
20160;BME280;50187;50.492;12.134;2022-11-15T16:05:24;96891.94;;;19.76;41.08
20160;BME280;50187;50.492;12.134;2022-11-15T16:08:22;96897.69;;;19.73;41.23
20160;BME280;50187;50.492;12.134;2022-11-15T16:11:07;96895.47;;;19.77;41.34
20160;BME280;50187;50.492;12.134;2022-11-15T16:13:54;96898.34;;;19.75;40.82
20160;BME280;50187;50.492;12.134;2022-11-15T16:16:39;96911.19;;;19.73;41.37
20160;BME280;50187;50.492;12.134;2022-11-15T16:19:24;96883.03;;;19.76;41.16
20160;BME280;50187;50.492;12.134;2022-11-15T16:22:09;96889.75;;;19.80;41.14
20160;BME280;50187;50.492;12.134;2022-11-15T16:24:55;96875.44;;;19.79;41.13
20160;BME280;50187;50.492;12.134;2022-11-15T16:27:40;96873.88;;;19.85;40.52
20160;BME280;50187;50.492;12.134;2022-11-15T16:30:29;96864.78;;;19.86;40.15
20160;BME280;50187;50.492;12.134;2022-11-15T16:33:15;96873.88;;;19.85;39.87
20160;BME280;50187;50.492;12.134;2022-11-15T16:36:04;96865.41;;;19.88;40.00
20160;BME280;50187;50.492;12.134;2022-11-15T16:38:50;96875.69;;;19.93;39.73
20160;BME280;50187;50.492;12.134;2022-11-15T16:41:35;96861.16;;;19.94;39.42
20160;BME280;50187;50.492;12.134;2022-11-15T16:44:20;96866.94;;;19.90;39.40
20160;BME280;50187;50.492;12.134;2022-11-15T16:47:17;96872.31;;;19.90;39.61
20160;BME280;50187;50.492;12.134;2022-11-15T16:50:04;96860.16;;;19.95;39.12
20160;BME280;50187;50.492;12.134;2022-11-15T16:52:55;96859.16;;;19.96;39.24
20160;BME280;50187;50.492;12.134;2022-11-15T16:55:40;96870.41;;;19.99;39.20
20160;BME280;50187;50.492;12.134;2022-11-15T16:58:25;96861.13;;;20.02;38.94
20160;BME280;50187;50.492;12.134;2022-11-15T17:01:21;96864.69;;;20.02;39.12
20160;BME280;50187;50.492;12.134;2022-11-15T17:04:21;96861.13;;;20.02;39.50
20160;BME280;50187;50.492;12.134;2022-11-15T17:07:11;96860.94;;;20.03;39.25
20160;BME280;50187;50.492;12.134;2022-11-15T17:09:59;96867.88;;;19.98;39.03